sensor_id;sensor_type;location;lat;lon;timestamp;P1;durP1;ratioP1;P2;durP2;ratioP2
16662;SDS011;8445;51.270;9.434;2023-06-22T00:02:14;19.55;;;17.73;;
16662;SDS011;8445;51.270;9.434;2023-06-22T00:04:39;20.35;;;18.15;;
16662;SDS011;8445;51.270;9.434;2023-06-22T00:07:05;20.13;;;18.23;;
16662;SDS011;8445;51.270;9.434;2023-06-22T00:09:31;20.52;;;18.55;;
16662;SDS011;8445;51.270;9.434;2023-06-22T00:11:57;19.90;;;17.80;;
16662;SDS011;8445;51.270;9.434;2023-06-22T00:14:22;21.63;;;19.40;;
16662;SDS011;8445;51.270;9.434;2023-06-22T00:16:48;22.13;;;19.95;;
16662;SDS011;8445;51.270;9.434;2023-06-22T00:19:14;21.13;;;17.85;;
16662;SDS011;8445;51.270;9.434;2023-06-22T00:21:40;18.10;;;16.20;;
16662;SDS011;8445;51.270;9.434;2023-06-22T00:24:07;19.25;;;17.42;;
16662;SDS011;8445;51.270;9.434;2023-06-22T00:26:33;18.75;;;16.95;;
16662;SDS011;8445;51.270;9.434;2023-06-22T00:28:59;20.13;;;18.08;;
16662;SDS011;8445;51.270;9.434;2023-06-22T00:31:24;22.65;;;19.48;;
16662;SDS011;8445;51.270;9.434;2023-06-22T00:33:53;22.15;;;19.90;;
16662;SDS011;8445;51.270;9.434;2023-06-22T00:36:18;26.58;;;19.70;;
16662;SDS011;8445;51.270;9.434;2023-06-22T00:38:44;22.52;;;19.52;;
16662;SDS011;8445;51.270;9.434;2023-06-22T00:41:10;20.17;;;18.27;;
16662;SDS011;8445;51.270;9.434;2023-06-22T00:43:35;22.50;;;18.70;;
16662;SDS011;8445;51.270;9.434;2023-06-22T00:46:02;21.05;;;18.85;;
16662;SDS011;8445;51.270;9.434;2023-06-22T00:48:28;20.48;;;18.40;;
16662;SDS011;8445;51.270;9.434;2023-06-22T00:50:55;18.92;;;17.05;;
16662;SDS011;8445;51.270;9.434;2023-06-22T00:53:22;21.48;;;19.17;;
16662;SDS011;8445;51.270;9.434;2023-06-22T00:55:48;19.52;;;17.65;;
16662;SDS011;8445;51.270;9.434;2023-06-22T00:58:16;21.55;;;19.40;;
16662;SDS011;8445;51.270;9.434;2023-06-22T01:00:47;23.70;;;21.20;;
16662;SDS011;8445;51.270;9.434;2023-06-22T01:03:13;23.20;;;20.73;;
16662;SDS011;8445;51.270;9.434;2023-06-22T01:05:39;23.17;;;20.80;;
16662;SDS011;8445;51.270;9.434;2023-06-22T01:10:43;26.67;;;22.52;;
16662;SDS011;8445;51.270;9.434;2023-06-22T01:13:37;22.08;;;19.83;;
16662;SDS011;8445;51.270;9.434;2023-06-22T01:16:07;30.00;;;20.55;;
16662;SDS011;8445;51.270;9.434;2023-06-22T01:18:45;28.75;;;22.17;;
16662;SDS011;8445;51.270;9.434;2023-06-22T01:21:16;23.17;;;20.88;;
16662;SDS011;8445;51.270;9.434;2023-06-22T01:23:56;27.52;;;22.40;;
16662;SDS011;8445;51.270;9.434;2023-06-22T01:26:37;26.10;;;21.98;;
16662;SDS011;8445;51.270;9.434;2023-06-22T01:29:08;25.13;;;22.63;;
16662;SDS011;8445;51.270;9.434;2023-06-22T01:31:37;28.33;;;22.00;;
16662;SDS011;8445;51.270;9.434;2023-06-22T01:34:05;25.52;;;22.50;;
16662;SDS011;8445;51.270;9.434;2023-06-22T01:36:31;24.50;;;22.00;;
16662;SDS011;8445;51.270;9.434;2023-06-22T01:38:58;25.85;;;22.00;;
16662;SDS011;8445;51.270;9.434;2023-06-22T01:41:27;25.27;;;22.58;;
16662;SDS011;8445;51.270;9.434;2023-06-22T01:43:54;25.63;;;22.85;;
16662;SDS011;8445;51.270;9.434;2023-06-22T01:46:21;28.23;;;24.08;;
16662;SDS011;8445;51.270;9.434;2023-06-22T01:48:51;26.40;;;23.52;;
16662;SDS011;8445;51.270;9.434;2023-06-22T01:51:17;26.35;;;23.85;;
16662;SDS011;8445;51.270;9.434;2023-06-22T01:53:42;27.13;;;23.40;;
16662;SDS011;8445;51.270;9.434;2023-06-22T01:56:08;24.50;;;21.83;;
16662;SDS011;8445;51.270;9.434;2023-06-22T01:58:34;29.10;;;24.10;;
16662;SDS011;8445;51.270;9.434;2023-06-22T02:01:10;24.30;;;21.85;;
16662;SDS011;8445;51.270;9.434;2023-06-22T02:03:41;23.40;;;21.08;;
16662;SDS011;8445;51.270;9.434;2023-06-22T02:06:17;24.48;;;21.77;;
16662;SDS011;8445;51.270;9.434;2023-06-22T02:08:55;24.48;;;21.58;;
16662;SDS011;8445;51.270;9.434;2023-06-22T02:11:26;23.80;;;21.40;;
16662;SDS011;8445;51.270;9.434;2023-06-22T02:13:53;23.55;;;21.15;;
16662;SDS011;8445;51.270;9.434;2023-06-22T02:16:23;23.60;;;21.20;;
16662;SDS011;8445;51.270;9.434;2023-06-22T02:18:49;22.60;;;20.35;;
16662;SDS011;8445;51.270;9.434;2023-06-22T02:21:16;20.35;;;18.23;;
16662;SDS011;8445;51.270;9.434;2023-06-22T02:23:43;20.45;;;18.33;;
16662;SDS011;8445;51.270;9.434;2023-06-22T02:26:09;24.83;;;18.80;;
16662;SDS011;8445;51.270;9.434;2023-06-22T02:28:35;22.27;;;19.58;;
16662;SDS011;8445;51.270;9.434;2023-06-22T02:31:00;23.65;;;21.23;;
16662;SDS011;8445;51.270;9.434;2023-06-22T02:33:26;22.05;;;19.77;;
16662;SDS011;8445;51.270;9.434;2023-06-22T02:35:52;22.73;;;20.63;;
16662;SDS011;8445;51.270;9.434;2023-06-22T02:38:20;21.98;;;19.73;;
16662;SDS011;8445;51.270;9.434;2023-06-22T02:40:46;22.27;;;19.92;;
16662;SDS011;8445;51.270;9.434;2023-06-22T02:43:12;23.85;;;19.23;;
16662;SDS011;8445;51.270;9.434;2023-06-22T02:45:38;23.30;;;20.20;;
16662;SDS011;8445;51.270;9.434;2023-06-22T02:48:04;25.30;;;22.15;;
16662;SDS011;8445;51.270;9.434;2023-06-22T02:50:30;25.20;;;20.17;;
16662;SDS011;8445;51.270;9.434;2023-06-22T02:52:56;23.15;;;20.42;;
16662;SDS011;8445;51.270;9.434;2023-06-22T02:55:23;25.27;;;22.55;;
16662;SDS011;8445;51.270;9.434;2023-06-22T02:57:54;23.88;;;19.58;;
16662;SDS011;8445;51.270;9.434;2023-06-22T03:00:20;22.52;;;17.17;;
16662;SDS011;8445;51.270;9.434;2023-06-22T03:02:48;20.05;;;17.95;;
16662;SDS011;8445;51.270;9.434;2023-06-22T03:05:14;18.73;;;16.83;;
16662;SDS011;8445;51.270;9.434;2023-06-22T03:07:43;20.17;;;18.05;;
16662;SDS011;8445;51.270;9.434;2023-06-22T03:10:10;18.83;;;16.92;;
16662;SDS011;8445;51.270;9.434;2023-06-22T03:12:40;22.98;;;18.30;;
16662;SDS011;8445;51.270;9.434;2023-06-22T03:15:07;22.05;;;19.02;;
16662;SDS011;8445;51.270;9.434;2023-06-22T03:17:34;26.38;;;18.00;;
16662;SDS011;8445;51.270;9.434;2023-06-22T03:20:01;24.27;;;18.95;;
16662;SDS011;8445;51.270;9.434;2023-06-22T03:22:40;20.23;;;17.52;;
16662;SDS011;8445;51.270;9.434;2023-06-22T03:25:07;25.80;;;18.48;;
16662;SDS011;8445;51.270;9.434;2023-06-22T03:27:40;20.88;;;18.67;;
16662;SDS011;8445;51.270;9.434;2023-06-22T03:30:07;20.55;;;18.38;;
16662;SDS011;8445;51.270;9.434;2023-06-22T03:32:35;26.25;;;17.70;;
16662;SDS011;8445;51.270;9.434;2023-06-22T03:35:05;18.95;;;16.58;;
16662;SDS011;8445;51.270;9.434;2023-06-22T03:37:34;22.20;;;19.05;;
16662;SDS011;8445;51.270;9.434;2023-06-22T03:39:59;20.48;;;18.33;;
16662;SDS011;8445;51.270;9.434;2023-06-22T03:42:26;30.88;;;18.58;;
16662;SDS011;8445;51.270;9.434;2023-06-22T03:44:52;20.58;;;18.48;;
16662;SDS011;8445;51.270;9.434;2023-06-22T03:47:18;26.65;;;18.58;;
16662;SDS011;8445;51.270;9.434;2023-06-22T03:49:43;23.00;;;19.85;;
16662;SDS011;8445;51.270;9.434;2023-06-22T03:52:09;23.52;;;19.35;;
16662;SDS011;8445;51.270;9.434;2023-06-22T03:54:36;26.27;;;18.55;;
16662;SDS011;8445;51.270;9.434;2023-06-22T03:57:01;21.10;;;18.88;;
16662;SDS011;8445;51.270;9.434;2023-06-22T03:59:27;25.77;;;18.75;;
16662;SDS011;8445;51.270;9.434;2023-06-22T04:01:52;28.98;;;19.58;;
16662;SDS011;8445;51.270;9.434;2023-06-22T04:04:18;21.63;;;19.33;;
16662;SDS011;8445;51.270;9.434;2023-06-22T04:06:43;23.63;;;19.23;;
16662;SDS011;8445;51.270;9.434;2023-06-22T04:09:09;21.88;;;19.70;;
16662;SDS011;8445;51.270;9.434;2023-06-22T04:11:35;20.92;;;18.70;;
16662;SDS011;8445;51.270;9.434;2023-06-22T04:14:00;22.55;;;19.35;;
16662;SDS011;8445;51.270;9.434;2023-06-22T04:16:26;24.58;;;19.92;;
16662;SDS011;8445;51.270;9.434;2023-06-22T04:18:51;25.20;;;19.73;;
16662;SDS011;8445;51.270;9.434;2023-06-22T04:21:17;21.02;;;18.90;;
16662;SDS011;8445;51.270;9.434;2023-06-22T04:23:45;24.95;;;20.20;;
16662;SDS011;8445;51.270;9.434;2023-06-22T04:26:11;21.15;;;19.13;;
16662;SDS011;8445;51.270;9.434;2023-06-22T04:28:37;22.55;;;19.27;;
16662;SDS011;8445;51.270;9.434;2023-06-22T04:31:03;20.92;;;18.73;;
16662;SDS011;8445;51.270;9.434;2023-06-22T04:33:28;21.35;;;19.25;;
16662;SDS011;8445;51.270;9.434;2023-06-22T04:35:57;21.83;;;18.88;;
16662;SDS011;8445;51.270;9.434;2023-06-22T04:38:23;21.70;;;19.50;;
16662;SDS011;8445;51.270;9.434;2023-06-22T04:40:50;24.90;;;19.40;;
16662;SDS011;8445;51.270;9.434;2023-06-22T04:43:16;21.63;;;19.33;;
16662;SDS011;8445;51.270;9.434;2023-06-22T04:45:43;19.70;;;17.73;;
16662;SDS011;8445;51.270;9.434;2023-06-22T04:48:08;20.75;;;18.30;;
16662;SDS011;8445;51.270;9.434;2023-06-22T04:50:35;20.27;;;18.30;;
16662;SDS011;8445;51.270;9.434;2023-06-22T04:53:04;19.98;;;17.95;;
16662;SDS011;8445;51.270;9.434;2023-06-22T04:55:31;26.05;;;19.00;;
16662;SDS011;8445;51.270;9.434;2023-06-22T04:57:57;20.70;;;18.50;;
16662;SDS011;8445;51.270;9.434;2023-06-22T05:00:29;22.67;;;18.58;;
16662;SDS011;8445;51.270;9.434;2023-06-22T05:02:55;19.38;;;17.30;;
16662;SDS011;8445;51.270;9.434;2023-06-22T05:05:23;15.93;;;14.45;;
16662;SDS011;8445;51.270;9.434;2023-06-22T05:07:49;19.52;;;15.48;;
16662;SDS011;8445;51.270;9.434;2023-06-22T05:10:18;17.67;;;15.25;;
16662;SDS011;8445;51.270;9.434;2023-06-22T05:12:44;15.18;;;13.70;;
16662;SDS011;8445;51.270;9.434;2023-06-22T05:15:10;15.45;;;13.80;;
16662;SDS011;8445;51.270;9.434;2023-06-22T05:17:39;15.32;;;13.93;;
16662;SDS011;8445;51.270;9.434;2023-06-22T05:20:16;14.10;;;12.88;;
16662;SDS011;8445;51.270;9.434;2023-06-22T05:22:43;13.25;;;11.90;;
16662;SDS011;8445;51.270;9.434;2023-06-22T05:25:09;12.55;;;11.38;;
16662;SDS011;8445;51.270;9.434;2023-06-22T05:27:35;12.00;;;10.90;;
16662;SDS011;8445;51.270;9.434;2023-06-22T05:30:08;11.88;;;10.75;;
16662;SDS011;8445;51.270;9.434;2023-06-22T05:32:35;12.45;;;10.65;;
16662;SDS011;8445;51.270;9.434;2023-06-22T05:35:01;10.20;;;9.18;;
16662;SDS011;8445;51.270;9.434;2023-06-22T05:37:28;11.38;;;9.88;;
16662;SDS011;8445;51.270;9.434;2023-06-22T05:39:54;10.45;;;9.30;;
16662;SDS011;8445;51.270;9.434;2023-06-22T05:42:20;9.98;;;8.98;;
16662;SDS011;8445;51.270;9.434;2023-06-22T05:44:46;10.18;;;9.15;;
16662;SDS011;8445;51.270;9.434;2023-06-22T05:47:12;9.95;;;8.95;;
16662;SDS011;8445;51.270;9.434;2023-06-22T05:49:38;11.27;;;10.13;;
16662;SDS011;8445;51.270;9.434;2023-06-22T05:52:03;15.50;;;9.05;;
16662;SDS011;8445;51.270;9.434;2023-06-22T05:54:29;9.60;;;8.80;;
16662;SDS011;8445;51.270;9.434;2023-06-22T05:56:55;9.65;;;8.68;;
16662;SDS011;8445;51.270;9.434;2023-06-22T05:59:21;9.55;;;8.65;;
16662;SDS011;8445;51.270;9.434;2023-06-22T06:01:47;9.90;;;8.50;;
16662;SDS011;8445;51.270;9.434;2023-06-22T06:04:18;9.30;;;8.40;;
16662;SDS011;8445;51.270;9.434;2023-06-22T06:06:44;10.30;;;8.13;;
16662;SDS011;8445;51.270;9.434;2023-06-22T06:09:12;9.00;;;7.85;;
16662;SDS011;8445;51.270;9.434;2023-06-22T06:11:39;9.30;;;8.40;;
16662;SDS011;8445;51.270;9.434;2023-06-22T06:14:04;9.30;;;8.40;;
16662;SDS011;8445;51.270;9.434;2023-06-22T06:16:30;9.77;;;8.73;;
16662;SDS011;8445;51.270;9.434;2023-06-22T06:18:56;9.57;;;8.68;;
16662;SDS011;8445;51.270;9.434;2023-06-22T06:21:23;8.88;;;7.85;;
16662;SDS011;8445;51.270;9.434;2023-06-22T06:23:49;8.82;;;7.93;;
16662;SDS011;8445;51.270;9.434;2023-06-22T06:26:14;8.23;;;7.50;;
16662;SDS011;8445;51.270;9.434;2023-06-22T06:28:42;8.95;;;8.05;;
16662;SDS011;8445;51.270;9.434;2023-06-22T06:31:10;8.18;;;7.38;;
16662;SDS011;8445;51.270;9.434;2023-06-22T06:33:37;8.73;;;6.95;;
16662;SDS011;8445;51.270;9.434;2023-06-22T06:36:03;10.18;;;7.57;;
16662;SDS011;8445;51.270;9.434;2023-06-22T06:38:31;7.78;;;6.97;;
16662;SDS011;8445;51.270;9.434;2023-06-22T06:40:57;9.02;;;6.85;;
16662;SDS011;8445;51.270;9.434;2023-06-22T06:43:23;7.60;;;6.90;;
16662;SDS011;8445;51.270;9.434;2023-06-22T06:45:50;9.15;;;7.65;;
16662;SDS011;8445;51.270;9.434;2023-06-22T06:48:15;8.27;;;7.47;;
16662;SDS011;8445;51.270;9.434;2023-06-22T06:50:41;8.00;;;7.30;;
16662;SDS011;8445;51.270;9.434;2023-06-22T06:53:09;8.00;;;7.20;;
16662;SDS011;8445;51.270;9.434;2023-06-22T06:55:34;10.85;;;7.72;;
16662;SDS011;8445;51.270;9.434;2023-06-22T06:58:01;8.13;;;7.18;;
16662;SDS011;8445;51.270;9.434;2023-06-22T07:00:28;7.72;;;6.35;;
16662;SDS011;8445;51.270;9.434;2023-06-22T07:02:53;7.78;;;7.03;;
16662;SDS011;8445;51.270;9.434;2023-06-22T07:05:19;8.93;;;7.05;;
16662;SDS011;8445;51.270;9.434;2023-06-22T07:07:44;9.90;;;6.32;;
16662;SDS011;8445;51.270;9.434;2023-06-22T07:10:10;8.23;;;6.25;;
16662;SDS011;8445;51.270;9.434;2023-06-22T07:12:36;6.63;;;6.03;;
16662;SDS011;8445;51.270;9.434;2023-06-22T07:15:02;7.05;;;6.40;;
16662;SDS011;8445;51.270;9.434;2023-06-22T07:17:35;6.80;;;5.75;;
16662;SDS011;8445;51.270;9.434;2023-06-22T07:20:01;7.13;;;6.30;;
16662;SDS011;8445;51.270;9.434;2023-06-22T07:22:32;7.22;;;5.75;;
16662;SDS011;8445;51.270;9.434;2023-06-22T07:24:58;8.30;;;5.75;;
16662;SDS011;8445;51.270;9.434;2023-06-22T07:27:23;6.30;;;5.80;;
16662;SDS011;8445;51.270;9.434;2023-06-22T07:29:49;6.15;;;5.65;;
16662;SDS011;8445;51.270;9.434;2023-06-22T07:32:15;7.72;;;5.70;;
16662;SDS011;8445;51.270;9.434;2023-06-22T07:34:41;7.18;;;6.18;;
16662;SDS011;8445;51.270;9.434;2023-06-22T07:37:06;8.68;;;5.65;;
16662;SDS011;8445;51.270;9.434;2023-06-22T07:39:32;7.20;;;6.43;;
16662;SDS011;8445;51.270;9.434;2023-06-22T07:41:57;7.85;;;7.07;;
16662;SDS011;8445;51.270;9.434;2023-06-22T07:44:23;6.75;;;6.07;;
16662;SDS011;8445;51.270;9.434;2023-06-22T07:46:49;7.95;;;6.85;;
16662;SDS011;8445;51.270;9.434;2023-06-22T07:49:14;9.82;;;7.75;;
16662;SDS011;8445;51.270;9.434;2023-06-22T07:51:40;7.60;;;6.90;;
16662;SDS011;8445;51.270;9.434;2023-06-22T07:54:05;8.13;;;7.32;;
16662;SDS011;8445;51.270;9.434;2023-06-22T07:56:31;7.97;;;7.00;;
16662;SDS011;8445;51.270;9.434;2023-06-22T07:58:58;7.95;;;7.07;;
16662;SDS011;8445;51.270;9.434;2023-06-22T08:01:24;8.25;;;7.20;;
16662;SDS011;8445;51.270;9.434;2023-06-22T08:03:49;7.95;;;7.13;;
16662;SDS011;8445;51.270;9.434;2023-06-22T08:06:16;7.60;;;6.90;;
16662;SDS011;8445;51.270;9.434;2023-06-22T08:08:41;8.00;;;7.20;;
16662;SDS011;8445;51.270;9.434;2023-06-22T08:11:08;9.30;;;7.57;;
16662;SDS011;8445;51.270;9.434;2023-06-22T08:13:33;9.73;;;7.07;;
16662;SDS011;8445;51.270;9.434;2023-06-22T08:15:59;10.70;;;6.85;;
16662;SDS011;8445;51.270;9.434;2023-06-22T08:18:25;10.23;;;7.60;;
16662;SDS011;8445;51.270;9.434;2023-06-22T08:20:50;7.57;;;6.97;;
16662;SDS011;8445;51.270;9.434;2023-06-22T08:23:16;8.23;;;7.50;;
16662;SDS011;8445;51.270;9.434;2023-06-22T08:25:42;8.35;;;7.38;;
16662;SDS011;8445;51.270;9.434;2023-06-22T08:28:07;8.35;;;6.75;;
16662;SDS011;8445;51.270;9.434;2023-06-22T08:30:33;9.55;;;7.47;;
16662;SDS011;8445;51.270;9.434;2023-06-22T08:32:58;8.40;;;7.32;;
16662;SDS011;8445;51.270;9.434;2023-06-22T08:35:24;8.57;;;7.70;;
16662;SDS011;8445;51.270;9.434;2023-06-22T08:37:50;8.95;;;7.05;;
16662;SDS011;8445;51.270;9.434;2023-06-22T08:40:20;7.53;;;6.78;;
16662;SDS011;8445;51.270;9.434;2023-06-22T08:42:48;8.45;;;7.05;;
16662;SDS011;8445;51.270;9.434;2023-06-22T08:45:14;7.70;;;6.85;;
16662;SDS011;8445;51.270;9.434;2023-06-22T08:47:40;7.78;;;7.07;;
16662;SDS011;8445;51.270;9.434;2023-06-22T08:50:06;8.25;;;7.47;;
16662;SDS011;8445;51.270;9.434;2023-06-22T08:52:36;7.60;;;6.63;;
16662;SDS011;8445;51.270;9.434;2023-06-22T08:55:02;8.38;;;7.57;;
16662;SDS011;8445;51.270;9.434;2023-06-22T08:57:28;7.65;;;6.95;;
16662;SDS011;8445;51.270;9.434;2023-06-22T08:59:55;8.88;;;7.80;;
16662;SDS011;8445;51.270;9.434;2023-06-22T09:02:23;8.70;;;7.60;;
16662;SDS011;8445;51.270;9.434;2023-06-22T09:04:56;7.95;;;6.70;;
16662;SDS011;8445;51.270;9.434;2023-06-22T09:07:22;7.82;;;7.13;;
16662;SDS011;8445;51.270;9.434;2023-06-22T09:09:49;6.60;;;5.95;;
16662;SDS011;8445;51.270;9.434;2023-06-22T09:12:16;7.55;;;6.82;;
16662;SDS011;8445;51.270;9.434;2023-06-22T09:14:45;7.72;;;7.03;;
16662;SDS011;8445;51.270;9.434;2023-06-22T09:17:12;9.32;;;7.18;;
16662;SDS011;8445;51.270;9.434;2023-06-22T09:19:38;7.63;;;6.68;;
16662;SDS011;8445;51.270;9.434;2023-06-22T09:22:03;6.95;;;6.32;;
16662;SDS011;8445;51.270;9.434;2023-06-22T09:24:31;7.20;;;6.60;;
16662;SDS011;8445;51.270;9.434;2023-06-22T09:26:56;10.02;;;6.82;;
16662;SDS011;8445;51.270;9.434;2023-06-22T09:29:22;6.95;;;6.35;;
16662;SDS011;8445;51.270;9.434;2023-06-22T09:31:47;6.72;;;6.13;;
16662;SDS011;8445;51.270;9.434;2023-06-22T09:34:13;8.13;;;7.03;;
16662;SDS011;8445;51.270;9.434;2023-06-22T09:36:45;7.40;;;6.70;;
16662;SDS011;8445;51.270;9.434;2023-06-22T09:39:11;7.10;;;6.50;;
16662;SDS011;8445;51.270;9.434;2023-06-22T09:41:37;8.20;;;7.40;;
16662;SDS011;8445;51.270;9.434;2023-06-22T09:44:04;8.32;;;6.50;;
16662;SDS011;8445;51.270;9.434;2023-06-22T09:46:30;7.03;;;6.32;;
16662;SDS011;8445;51.270;9.434;2023-06-22T09:48:55;7.03;;;6.40;;
16662;SDS011;8445;51.270;9.434;2023-06-22T09:51:22;8.25;;;6.90;;
16662;SDS011;8445;51.270;9.434;2023-06-22T09:53:49;7.15;;;6.45;;
16662;SDS011;8445;51.270;9.434;2023-06-22T09:56:15;6.72;;;6.22;;
16662;SDS011;8445;51.270;9.434;2023-06-22T09:58:45;7.50;;;6.28;;
16662;SDS011;8445;51.270;9.434;2023-06-22T10:01:11;7.80;;;6.88;;
16662;SDS011;8445;51.270;9.434;2023-06-22T10:03:37;7.32;;;6.65;;
16662;SDS011;8445;51.270;9.434;2023-06-22T10:06:03;7.07;;;6.40;;
16662;SDS011;8445;51.270;9.434;2023-06-22T10:08:28;7.85;;;6.65;;
16662;SDS011;8445;51.270;9.434;2023-06-22T10:10:54;6.57;;;6.03;;
16662;SDS011;8445;51.270;9.434;2023-06-22T10:13:19;7.22;;;6.53;;
16662;SDS011;8445;51.270;9.434;2023-06-22T10:15:45;6.93;;;6.32;;
16662;SDS011;8445;51.270;9.434;2023-06-22T10:18:17;7.18;;;6.22;;
16662;SDS011;8445;51.270;9.434;2023-06-22T10:20:43;7.25;;;6.55;;
16662;SDS011;8445;51.270;9.434;2023-06-22T10:23:09;7.32;;;6.38;;
16662;SDS011;8445;51.270;9.434;2023-06-22T10:25:34;7.82;;;6.40;;
16662;SDS011;8445;51.270;9.434;2023-06-22T10:28:00;7.70;;;6.88;;
16662;SDS011;8445;51.270;9.434;2023-06-22T10:30:26;7.05;;;6.35;;
16662;SDS011;8445;51.270;9.434;2023-06-22T10:32:54;7.68;;;6.72;;
16662;SDS011;8445;51.270;9.434;2023-06-22T10:35:19;7.15;;;6.15;;
16662;SDS011;8445;51.270;9.434;2023-06-22T10:37:45;8.13;;;6.35;;
16662;SDS011;8445;51.270;9.434;2023-06-22T10:40:15;6.78;;;6.18;;
16662;SDS011;8445;51.270;9.434;2023-06-22T10:42:42;6.88;;;6.18;;
16662;SDS011;8445;51.270;9.434;2023-06-22T10:45:10;6.95;;;6.25;;
16662;SDS011;8445;51.270;9.434;2023-06-22T10:47:36;7.22;;;6.45;;
16662;SDS011;8445;51.270;9.434;2023-06-22T10:50:02;6.95;;;6.32;;
16662;SDS011;8445;51.270;9.434;2023-06-22T10:52:28;7.13;;;6.43;;
16662;SDS011;8445;51.270;9.434;2023-06-22T10:54:54;7.68;;;6.43;;
16662;SDS011;8445;51.270;9.434;2023-06-22T10:57:19;6.50;;;6.00;;
16662;SDS011;8445;51.270;9.434;2023-06-22T10:59:46;8.48;;;6.40;;
16662;SDS011;8445;51.270;9.434;2023-06-22T11:02:12;6.85;;;5.95;;
16662;SDS011;8445;51.270;9.434;2023-06-22T11:04:38;7.13;;;5.93;;
16662;SDS011;8445;51.270;9.434;2023-06-22T11:07:03;7.32;;;6.43;;
16662;SDS011;8445;51.270;9.434;2023-06-22T11:09:29;6.55;;;5.90;;
16662;SDS011;8445;51.270;9.434;2023-06-22T11:11:55;5.63;;;5.05;;
16662;SDS011;8445;51.270;9.434;2023-06-22T11:14:21;5.55;;;5.15;;
16662;SDS011;8445;51.270;9.434;2023-06-22T11:16:47;8.77;;;5.47;;
16662;SDS011;8445;51.270;9.434;2023-06-22T11:19:13;7.40;;;5.22;;
16662;SDS011;8445;51.270;9.434;2023-06-22T11:21:38;5.70;;;5.07;;
16662;SDS011;8445;51.270;9.434;2023-06-22T11:24:04;6.03;;;5.00;;
16662;SDS011;8445;51.270;9.434;2023-06-22T11:26:30;5.53;;;5.03;;
16662;SDS011;8445;51.270;9.434;2023-06-22T11:28:59;8.20;;;5.40;;
16662;SDS011;8445;51.270;9.434;2023-06-22T11:31:24;6.03;;;5.53;;
16662;SDS011;8445;51.270;9.434;2023-06-22T11:33:50;5.50;;;5.00;;
16662;SDS011;8445;51.270;9.434;2023-06-22T11:36:16;7.68;;;4.85;;
16662;SDS011;8445;51.270;9.434;2023-06-22T11:38:42;5.05;;;4.60;;
16662;SDS011;8445;51.270;9.434;2023-06-22T11:41:08;5.72;;;5.22;;
16662;SDS011;8445;51.270;9.434;2023-06-22T11:43:35;6.03;;;5.53;;
16662;SDS011;8445;51.270;9.434;2023-06-22T11:46:05;5.90;;;5.40;;
16662;SDS011;8445;51.270;9.434;2023-06-22T11:48:31;5.63;;;5.13;;
16662;SDS011;8445;51.270;9.434;2023-06-22T11:50:56;6.35;;;4.53;;
16662;SDS011;8445;51.270;9.434;2023-06-22T11:53:23;5.13;;;4.63;;
16662;SDS011;8445;51.270;9.434;2023-06-22T11:55:50;5.10;;;4.25;;
16662;SDS011;8445;51.270;9.434;2023-06-22T11:58:16;4.90;;;4.45;;
16662;SDS011;8445;51.270;9.434;2023-06-22T12:00:41;7.72;;;4.60;;
16662;SDS011;8445;51.270;9.434;2023-06-22T12:03:07;5.35;;;4.70;;
16662;SDS011;8445;51.270;9.434;2023-06-22T12:05:33;6.95;;;4.90;;
16662;SDS011;8445;51.270;9.434;2023-06-22T12:07:58;6.68;;;4.00;;
16662;SDS011;8445;51.270;9.434;2023-06-22T12:10:25;6.00;;;4.63;;
16662;SDS011;8445;51.270;9.434;2023-06-22T12:12:51;7.80;;;4.95;;
16662;SDS011;8445;51.270;9.434;2023-06-22T12:15:17;4.97;;;4.57;;
16662;SDS011;8445;51.270;9.434;2023-06-22T12:17:42;5.05;;;4.55;;
16662;SDS011;8445;51.270;9.434;2023-06-22T12:20:08;4.97;;;4.45;;
16662;SDS011;8445;51.270;9.434;2023-06-22T12:22:34;4.95;;;4.43;;
16662;SDS011;8445;51.270;9.434;2023-06-22T12:25:00;5.72;;;4.13;;
16662;SDS011;8445;51.270;9.434;2023-06-22T12:27:26;5.25;;;4.70;;
16662;SDS011;8445;51.270;9.434;2023-06-22T12:29:52;5.13;;;4.70;;
16662;SDS011;8445;51.270;9.434;2023-06-22T12:32:17;5.78;;;4.60;;
16662;SDS011;8445;51.270;9.434;2023-06-22T12:34:43;7.55;;;4.57;;
16662;SDS011;8445;51.270;9.434;2023-06-22T12:37:10;5.13;;;4.72;;
16662;SDS011;8445;51.270;9.434;2023-06-22T12:39:35;4.40;;;4.00;;
16662;SDS011;8445;51.270;9.434;2023-06-22T12:42:01;6.57;;;4.63;;
16662;SDS011;8445;51.270;9.434;2023-06-22T12:44:27;5.25;;;4.80;;
16662;SDS011;8445;51.270;9.434;2023-06-22T12:46:52;6.07;;;4.97;;
16662;SDS011;8445;51.270;9.434;2023-06-22T12:49:18;8.52;;;5.10;;
16662;SDS011;8445;51.270;9.434;2023-06-22T12:51:43;5.10;;;4.60;;
16662;SDS011;8445;51.270;9.434;2023-06-22T12:54:10;5.30;;;4.80;;
16662;SDS011;8445;51.270;9.434;2023-06-22T12:56:36;7.25;;;5.40;;
16662;SDS011;8445;51.270;9.434;2023-06-22T12:59:03;6.97;;;5.32;;
16662;SDS011;8445;51.270;9.434;2023-06-22T13:01:29;6.65;;;4.90;;
16662;SDS011;8445;51.270;9.434;2023-06-22T13:03:55;5.53;;;5.00;;
16662;SDS011;8445;51.270;9.434;2023-06-22T13:06:21;8.00;;;5.03;;
16662;SDS011;8445;51.270;9.434;2023-06-22T13:08:50;6.70;;;5.70;;
16662;SDS011;8445;51.270;9.434;2023-06-22T13:11:15;8.00;;;5.63;;
16662;SDS011;8445;51.270;9.434;2023-06-22T13:13:41;9.05;;;5.68;;
16662;SDS011;8445;51.270;9.434;2023-06-22T13:16:07;6.30;;;5.70;;
16662;SDS011;8445;51.270;9.434;2023-06-22T13:18:32;6.00;;;5.40;;
16662;SDS011;8445;51.270;9.434;2023-06-22T13:21:01;9.25;;;5.55;;
16662;SDS011;8445;51.270;9.434;2023-06-22T13:23:27;8.52;;;5.35;;
16662;SDS011;8445;51.270;9.434;2023-06-22T13:25:52;9.13;;;6.53;;
16662;SDS011;8445;51.270;9.434;2023-06-22T13:28:18;7.38;;;5.68;;
16662;SDS011;8445;51.270;9.434;2023-06-22T13:30:43;8.90;;;5.35;;
16662;SDS011;8445;51.270;9.434;2023-06-22T13:33:12;9.52;;;6.20;;
16662;SDS011;8445;51.270;9.434;2023-06-22T13:35:38;9.07;;;5.80;;
16662;SDS011;8445;51.270;9.434;2023-06-22T13:38:03;7.15;;;6.45;;
16662;SDS011;8445;51.270;9.434;2023-06-22T13:40:29;7.40;;;6.28;;
16662;SDS011;8445;51.270;9.434;2023-06-22T13:42:56;10.38;;;6.40;;
16662;SDS011;8445;51.270;9.434;2023-06-22T13:45:21;6.95;;;6.20;;
16662;SDS011;8445;51.270;9.434;2023-06-22T13:47:47;9.45;;;6.28;;
16662;SDS011;8445;51.270;9.434;2023-06-22T13:50:13;7.45;;;6.22;;
16662;SDS011;8445;51.270;9.434;2023-06-22T13:52:40;9.70;;;6.70;;
16662;SDS011;8445;51.270;9.434;2023-06-22T13:55:05;11.98;;;6.32;;
16662;SDS011;8445;51.270;9.434;2023-06-22T13:57:35;12.57;;;6.57;;
16662;SDS011;8445;51.270;9.434;2023-06-22T14:00:01;7.18;;;6.50;;
16662;SDS011;8445;51.270;9.434;2023-06-22T14:02:36;7.88;;;6.93;;
16662;SDS011;8445;51.270;9.434;2023-06-22T14:05:02;7.88;;;7.03;;
16662;SDS011;8445;51.270;9.434;2023-06-22T14:07:27;9.15;;;7.15;;
16662;SDS011;8445;51.270;9.434;2023-06-22T14:09:53;10.07;;;7.18;;
16662;SDS011;8445;51.270;9.434;2023-06-22T14:12:18;9.02;;;6.93;;
16662;SDS011;8445;51.270;9.434;2023-06-22T14:14:44;11.23;;;7.25;;
16662;SDS011;8445;51.270;9.434;2023-06-22T14:17:10;8.93;;;6.80;;
16662;SDS011;8445;51.270;9.434;2023-06-22T14:19:35;7.90;;;7.10;;
16662;SDS011;8445;51.270;9.434;2023-06-22T14:22:01;7.82;;;7.03;;
16662;SDS011;8445;51.270;9.434;2023-06-22T14:24:27;11.38;;;7.97;;
16662;SDS011;8445;51.270;9.434;2023-06-22T14:26:53;8.65;;;7.72;;
16662;SDS011;8445;51.270;9.434;2023-06-22T14:29:20;7.05;;;6.45;;
16662;SDS011;8445;51.270;9.434;2023-06-22T14:31:46;20.02;;;4.53;;
16662;SDS011;8445;51.270;9.434;2023-06-22T14:37:18;117.32;;;14.65;;
